Fostoria, Iowa
Current Conditions -  °F | °C
As of 3:53 AM on Wednesday 26 Nov 2014 (Local Time) from KSPW Reporting Station
Light Snow Light Snow  
Wind Chill: 19°   Ceiling: 700
Heat Index: 28°   Visibility: 3mi
Dew Point: 25°   Wind: 9mph
Humidity: 88%   Direction: 120°ESE
Pressure: 29.86"   Gusts: NA
Location:  43.24°N, 95.16°W
Report Text: KSPW 260953Z AUTO 12008KT 3SM -SN BR OVC007 M02/M04 A2986 RMK AO2 SLP127 P0000 T10221039 TSNO
Loading
Personal Weather Stations






























Interactive Weather Map New forecast layout! Learn more

10-Day Weather Forecast

Advertisements
Track Severe Weather on mobile